createdAt,value
2022-09-12T00:00:32.012Z,20.93
2022-09-12T00:01:33.791Z,20.93
2022-09-12T00:02:35.719Z,20.92
2022-09-12T00:03:40.570Z,20.91
2022-09-12T00:04:42.376Z,20.90
2022-09-12T00:05:47.106Z,20.89
2022-09-12T00:06:48.931Z,20.89
2022-09-12T00:07:51.089Z,20.89
2022-09-12T00:08:59.196Z,20.88
2022-09-12T00:10:00.911Z,20.88
2022-09-12T00:11:08.426Z,20.87
2022-09-12T00:12:10.171Z,20.87
2022-09-12T00:13:12.383Z,20.86
2022-09-12T00:14:18.822Z,20.86
2022-09-12T00:15:20.740Z,20.85
2022-09-12T00:16:27.157Z,20.84
2022-09-12T00:17:29.130Z,20.86
2022-09-12T00:18:32.234Z,20.83
2022-09-12T00:19:34.151Z,20.82
2022-09-12T00:20:35.984Z,20.80
2022-09-12T00:21:40.490Z,20.79
2022-09-12T00:22:42.225Z,20.76
2022-09-12T00:23:44.836Z,20.76
2022-09-12T00:24:46.547Z,20.74
2022-09-12T00:25:49.179Z,20.75
2022-09-12T00:26:51.021Z,20.74
2022-09-12T00:27:52.759Z,20.72
2022-09-12T00:28:54.622Z,20.72
2022-09-12T00:29:56.459Z,20.71
2022-09-12T00:30:58.168Z,20.72
2022-09-12T00:31:59.923Z,20.69
2022-09-12T00:33:01.703Z,20.68
2022-09-12T00:34:03.505Z,20.68
2022-09-12T00:35:05.914Z,20.68
2022-09-12T00:36:12.807Z,20.67
2022-09-12T00:37:14.532Z,20.64
2022-09-12T00:38:17.370Z,20.62
2022-09-12T00:39:19.727Z,20.61
2022-09-12T00:40:21.687Z,20.60
2022-09-12T00:41:35.023Z,20.62
2022-09-12T00:42:36.876Z,20.59
2022-09-12T00:43:51.144Z,20.56
2022-09-12T00:44:53.819Z,20.53
2022-09-12T00:45:57.968Z,20.51
2022-09-12T00:47:14.266Z,20.50
2022-09-12T00:48:32.066Z,20.52
2022-09-12T00:49:57.915Z,20.49
2022-09-12T00:51:01.544Z,20.43
2022-09-12T00:52:35.388Z,20.46
2022-09-12T00:53:39.041Z,20.39
2022-09-12T00:55:15.476Z,20.41
2022-09-12T00:56:19.748Z,20.35
2022-09-12T00:57:28.769Z,20.33
2022-09-12T00:59:03.328Z,20.34
2022-09-12T01:00:18.139Z,20.33
2022-09-12T01:01:20.202Z,20.27
2022-09-12T01:02:22.512Z,20.26
2022-09-12T01:03:26.008Z,20.25
2022-09-12T01:04:29.121Z,20.25
2022-09-12T01:05:36.417Z,20.25
2022-09-12T01:06:43.303Z,20.24
2022-09-12T01:07:48.523Z,20.22
2022-09-12T01:08:52.679Z,20.22
2022-09-12T01:09:54.979Z,20.22
2022-09-12T01:10:57.675Z,20.21
2022-09-12T01:12:02.198Z,20.21
2022-09-12T01:13:08.296Z,20.21
2022-09-12T01:14:10.000Z,20.18
2022-09-12T01:15:12.647Z,20.17
2022-09-12T01:16:14.620Z,20.17
2022-09-12T01:17:16.862Z,20.15
2022-09-12T01:18:59.927Z,20.20
2022-09-12T01:20:45.895Z,20.20
2022-09-12T01:22:14.798Z,20.13
2022-09-12T01:23:52.874Z,20.14
2022-09-12T01:25:33.829Z,20.11
2022-09-12T01:26:59.741Z,20.06
2022-09-12T01:28:26.127Z,20.05
2022-09-12T01:29:56.476Z,20.04
2022-09-12T01:31:32.205Z,20.02
2022-09-12T01:33:23.235Z,20.02
2022-09-12T01:34:45.184Z,19.98
2022-09-12T01:36:02.107Z,19.98
2022-09-12T01:38:13.885Z,20.01
2022-09-12T01:41:03.804Z,19.97
2022-09-12T01:42:35.243Z,19.95
2022-09-12T01:44:02.243Z,19.91
2022-09-12T01:45:23.423Z,19.90
2022-09-12T01:46:39.395Z,19.85
2022-09-12T01:47:58.491Z,19.84
2022-09-12T01:50:16.324Z,19.88
2022-09-12T01:51:44.662Z,19.85
2022-09-12T01:55:09.720Z,19.80
2022-09-12T01:56:28.640Z,19.78
2022-09-12T01:57:44.909Z,19.76
2022-09-12T01:59:16.724Z,19.77
2022-09-12T02:00:19.950Z,19.71
2022-09-12T02:01:31.692Z,19.73
2022-09-12T02:02:40.599Z,19.72
2022-09-12T02:04:00.012Z,19.75
2022-09-12T02:05:17.157Z,19.71
2022-09-12T02:06:37.430Z,19.74
2022-09-12T02:07:48.664Z,19.70
2022-09-12T02:09:01.166Z,19.70
2022-09-12T02:10:21.791Z,19.73
2022-09-12T02:11:23.771Z,19.68
2022-09-12T02:12:37.011Z,19.67
2022-09-12T02:13:52.278Z,19.69
2022-09-12T02:15:02.203Z,19.67
2022-09-12T02:16:19.380Z,19.71
2022-09-12T02:17:26.201Z,19.66
2022-09-12T02:18:34.165Z,19.68
2022-09-12T02:19:51.933Z,19.68
2022-09-12T02:20:56.795Z,19.67
2022-09-12T02:22:02.025Z,19.64
2022-09-12T02:23:12.071Z,19.66
2022-09-12T02:24:17.054Z,19.66
2022-09-12T02:25:22.908Z,19.66
2022-09-12T02:26:44.694Z,19.69
2022-09-12T02:28:29.508Z,19.67
2022-09-12T02:29:31.308Z,19.65
2022-09-12T02:31:02.488Z,19.68
2022-09-12T02:32:38.027Z,19.70
2022-09-12T02:33:59.010Z,19.68
2022-09-12T02:35:31.193Z,19.65
2022-09-12T02:36:55.111Z,19.68
2022-09-12T02:38:11.285Z,19.65
2022-09-12T02:39:13.146Z,19.59
2022-09-12T02:40:15.635Z,19.59
2022-09-12T02:41:21.331Z,19.59
2022-09-12T02:42:24.343Z,19.58
2022-09-12T02:43:26.212Z,19.59
2022-09-12T02:44:31.652Z,19.59
2022-09-12T02:45:36.469Z,19.59
2022-09-12T02:46:52.550Z,19.61
2022-09-12T02:48:09.164Z,19.62
2022-09-12T02:49:11.077Z,19.59
2022-09-12T02:50:13.734Z,19.58
2022-09-12T02:51:19.228Z,19.58
2022-09-12T02:52:24.026Z,19.57
2022-09-12T02:53:26.746Z,19.56
2022-09-12T02:54:30.567Z,19.56
2022-09-12T02:55:36.831Z,19.56
2022-09-12T02:56:43.386Z,19.56
2022-09-12T02:57:45.111Z,19.57
2022-09-12T02:58:48.032Z,19.56
2022-09-12T02:59:57.240Z,19.56
2022-09-12T03:01:30.870Z,19.56
2022-09-12T03:03:15.977Z,19.59
2022-09-12T03:04:48.557Z,19.54
2022-09-12T03:06:09.424Z,19.49
2022-09-12T03:07:57.801Z,19.51
2022-09-12T03:09:44.167Z,19.48
2022-09-12T03:10:48.499Z,19.40
2022-09-12T03:12:11.677Z,19.41
2022-09-12T03:13:42.419Z,19.39
2022-09-12T03:15:31.984Z,19.38
2022-09-12T03:17:08.419Z,19.34
2022-09-12T03:18:21.398Z,19.31
2022-09-12T03:19:52.515Z,19.32
2022-09-12T03:21:04.094Z,19.29
2022-09-12T03:22:18.735Z,19.27
2022-09-12T03:24:08.352Z,19.30
2022-09-12T03:25:22.071Z,19.25
2022-09-12T03:26:44.558Z,19.23
2022-09-12T03:28:11.721Z,19.25
2022-09-12T03:29:15.300Z,19.20
2022-09-12T03:30:17.238Z,19.17
2022-09-12T03:31:20.142Z,19.15
2022-09-12T03:32:48.487Z,19.17
2022-09-12T03:33:50.341Z,19.10
2022-09-12T03:34:52.027Z,19.10
2022-09-12T03:35:55.366Z,19.09
2022-09-12T03:36:57.194Z,19.07
2022-09-12T03:37:58.913Z,19.07
2022-09-12T03:39:00.604Z,19.06
2022-09-12T03:40:07.467Z,19.06
2022-09-12T03:41:09.260Z,19.06
2022-09-12T03:42:10.971Z,19.04
2022-09-12T03:43:12.908Z,19.03
2022-09-12T03:44:14.608Z,19.03
2022-09-12T03:45:16.601Z,19.02
2022-09-12T03:46:18.377Z,19.02
2022-09-12T03:47:20.132Z,19.00
2022-09-12T03:48:21.922Z,18.99
2022-09-12T03:49:23.619Z,18.99
2022-09-12T03:50:25.407Z,18.99
2022-09-12T03:51:27.241Z,18.98
2022-09-12T03:52:28.957Z,18.98
2022-09-12T03:53:31.441Z,18.96
2022-09-12T03:54:33.332Z,18.97
2022-09-12T03:55:36.129Z,18.94
2022-09-12T03:56:38.038Z,18.94
2022-09-12T03:57:40.360Z,18.94
2022-09-12T03:58:42.431Z,18.92
2022-09-12T03:59:44.553Z,18.93
2022-09-12T04:00:46.707Z,18.91
2022-09-12T04:01:48.472Z,18.92
2022-09-12T04:02:56.201Z,18.93
2022-09-12T04:03:57.939Z,18.91
2022-09-12T04:04:59.643Z,18.92
2022-09-12T04:06:01.546Z,18.91
2022-09-12T04:07:03.393Z,18.89
2022-09-12T04:08:05.238Z,18.90
2022-09-12T04:09:06.930Z,18.89
2022-09-12T04:10:09.736Z,18.90
2022-09-12T04:11:15.112Z,18.90
2022-09-12T04:12:16.875Z,18.89
2022-09-12T04:13:18.590Z,18.86
2022-09-12T04:14:20.322Z,18.87
2022-09-12T04:15:22.049Z,18.86
2022-09-12T04:16:23.845Z,18.85
2022-09-12T04:17:25.621Z,18.87
2022-09-12T04:18:28.182Z,18.85
2022-09-12T04:19:29.928Z,18.84
2022-09-12T04:20:31.624Z,18.85
2022-09-12T04:21:33.732Z,18.86
2022-09-12T04:22:35.517Z,18.82
2022-09-12T04:23:37.928Z,18.82
2022-09-12T04:24:39.608Z,18.81
2022-09-12T04:25:41.310Z,18.81
2022-09-12T04:26:43.556Z,18.81
2022-09-12T04:27:45.253Z,18.79
2022-09-12T04:28:48.430Z,18.79
2022-09-12T04:29:50.178Z,18.78
2022-09-12T04:30:52.461Z,18.76
2022-09-12T04:31:54.308Z,18.76
2022-09-12T04:32:56.028Z,18.75
2022-09-12T04:34:01.220Z,18.75
2022-09-12T04:35:04.080Z,18.74
2022-09-12T04:36:16.962Z,18.75
2022-09-12T04:37:18.943Z,18.73
2022-09-12T04:38:20.640Z,18.73
2022-09-12T04:39:22.346Z,18.72
2022-09-12T04:40:24.080Z,18.70
2022-09-12T04:41:30.850Z,18.70
2022-09-12T04:42:32.577Z,18.70
2022-09-12T04:43:34.635Z,18.70
2022-09-12T04:44:36.399Z,18.68
2022-09-12T04:45:38.239Z,18.68
2022-09-12T04:46:45.502Z,18.68
2022-09-12T04:47:47.316Z,18.67
2022-09-12T04:48:53.275Z,18.66
2022-09-12T04:49:57.722Z,18.66
2022-09-12T04:51:38.207Z,18.68
2022-09-12T04:52:39.952Z,18.63
2022-09-12T04:53:43.627Z,18.62
2022-09-12T04:54:45.412Z,18.60
2022-09-12T04:55:47.127Z,18.60
2022-09-12T04:56:51.083Z,18.60
2022-09-12T04:57:53.061Z,18.56
2022-09-12T04:58:57.478Z,18.58
2022-09-12T05:00:03.871Z,18.54
2022-09-12T05:01:15.519Z,18.58
2022-09-12T05:02:17.339Z,18.57
2022-09-12T05:03:19.095Z,18.57
2022-09-12T05:04:21.488Z,18.57
2022-09-12T05:05:23.252Z,18.57
2022-09-12T05:06:30.081Z,18.58
2022-09-12T05:07:32.429Z,18.57
2022-09-12T05:08:35.478Z,18.57
2022-09-12T05:09:37.232Z,18.54
2022-09-12T05:10:38.935Z,18.54
2022-09-12T05:12:03.862Z,18.54
2022-09-12T05:13:06.065Z,18.55
2022-09-12T05:14:08.147Z,18.52
2022-09-12T05:15:10.469Z,18.50
2022-09-12T05:16:15.581Z,18.51
2022-09-12T05:17:17.599Z,18.50
2022-09-12T05:18:19.300Z,18.51
2022-09-12T05:19:21.046Z,18.50
2022-09-12T05:20:22.773Z,18.51
2022-09-12T05:21:26.094Z,18.51
2022-09-12T05:22:27.837Z,18.52
2022-09-12T05:23:30.496Z,18.52
2022-09-12T05:24:32.611Z,18.52
2022-09-12T05:25:34.310Z,18.53
2022-09-12T05:26:36.015Z,18.53
2022-09-12T05:27:37.855Z,18.51
2022-09-12T05:28:40.373Z,18.54
2022-09-12T05:29:42.988Z,18.53
2022-09-12T05:30:45.220Z,18.51
2022-09-12T05:31:49.952Z,18.52
2022-09-12T05:32:51.750Z,18.51
2022-09-12T05:33:55.754Z,18.51
2022-09-12T05:34:57.487Z,18.50
2022-09-12T05:35:59.934Z,18.49
2022-09-12T05:37:01.654Z,18.51
2022-09-12T05:38:04.408Z,18.51
2022-09-12T05:39:06.519Z,18.52
2022-09-12T05:40:09.330Z,18.52
2022-09-12T05:41:24.677Z,18.52
2022-09-12T05:42:29.908Z,18.54
2022-09-12T05:43:33.280Z,18.52
2022-09-12T05:44:34.985Z,18.52
2022-09-12T05:45:37.124Z,18.52
2022-09-12T05:46:45.468Z,18.53
2022-09-12T05:47:47.730Z,18.53
2022-09-12T05:48:55.061Z,18.51
2022-09-12T05:49:59.024Z,18.53
2022-09-12T05:51:03.509Z,18.55
2022-09-12T05:52:05.286Z,18.55
2022-09-12T05:53:08.672Z,18.55
2022-09-12T05:54:14.232Z,18.57
2022-09-12T05:55:16.563Z,18.58
2022-09-12T05:56:22.708Z,18.58
2022-09-12T05:57:24.449Z,18.57
2022-09-12T05:58:26.172Z,18.58
2022-09-12T05:59:28.426Z,18.57
2022-09-12T06:00:33.436Z,18.58
2022-09-12T06:01:35.977Z,18.59
2022-09-12T06:02:37.785Z,18.59
2022-09-12T06:03:46.350Z,18.60
2022-09-12T06:04:48.067Z,18.62
2022-09-12T06:05:50.749Z,18.61
2022-09-12T06:06:52.793Z,18.62
2022-09-12T06:07:54.521Z,18.62
2022-09-12T06:09:00.162Z,18.62
2022-09-12T06:10:03.848Z,18.63
2022-09-12T06:11:07.592Z,18.62
2022-09-12T06:12:09.306Z,18.64
2022-09-12T06:13:11.001Z,18.64
2022-09-12T06:14:16.784Z,18.65
2022-09-12T06:15:18.587Z,18.67
2022-09-12T06:16:24.580Z,18.68
2022-09-12T06:17:26.477Z,18.69
2022-09-12T06:18:28.181Z,18.70
2022-09-12T06:19:29.927Z,18.71
2022-09-12T06:20:31.625Z,18.72
2022-09-12T06:21:35.362Z,18.73
2022-09-12T06:22:37.329Z,18.73
2022-09-12T06:23:40.284Z,18.75
2022-09-12T06:24:42.015Z,18.76
2022-09-12T06:25:52.013Z,18.80
2022-09-12T06:26:53.820Z,18.80
2022-09-12T06:27:55.540Z,18.81
2022-09-12T06:29:00.693Z,18.81
2022-09-12T06:30:02.427Z,18.83
2022-09-12T06:31:12.645Z,18.85
2022-09-12T06:32:14.496Z,18.88
2022-09-12T06:33:16.553Z,18.87
2022-09-12T06:34:19.446Z,18.88
2022-09-12T06:35:21.210Z,18.89
2022-09-12T06:36:30.108Z,18.93
2022-09-12T06:37:32.672Z,18.93
2022-09-12T06:38:35.401Z,18.94
2022-09-12T06:39:38.312Z,18.95
2022-09-12T06:40:44.570Z,18.98
2022-09-12T06:41:48.485Z,18.99
2022-09-12T06:42:50.212Z,19.01
2022-09-12T06:43:52.876Z,19.01
2022-09-12T06:44:54.625Z,19.04
2022-09-12T06:45:56.663Z,19.08
2022-09-12T06:46:58.694Z,19.08
2022-09-12T06:48:00.450Z,19.12
2022-09-12T06:49:02.284Z,19.16
2022-09-12T06:50:04.471Z,19.18
2022-09-12T06:51:10.570Z,19.23
2022-09-12T06:52:12.267Z,19.25
2022-09-12T06:53:13.967Z,19.26
2022-09-12T06:54:17.156Z,19.31
2022-09-12T06:55:21.724Z,19.34
2022-09-12T06:56:27.775Z,19.37
2022-09-12T06:57:31.360Z,19.41
2022-09-12T06:58:34.972Z,19.44
2022-09-12T06:59:36.741Z,19.47
2022-09-12T07:00:39.564Z,19.50
2022-09-12T07:01:42.217Z,19.53
2022-09-12T07:02:44.067Z,19.57
2022-09-12T07:03:55.790Z,19.63
2022-09-12T07:04:57.642Z,19.66
2022-09-12T07:06:12.102Z,19.72
2022-09-12T07:07:14.602Z,19.75
2022-09-12T07:08:16.303Z,19.75
2022-09-12T07:09:18.100Z,19.76
2022-09-12T07:10:22.414Z,19.78
2022-09-12T07:11:28.068Z,19.84
2022-09-12T07:12:30.043Z,19.85
2022-09-12T07:13:32.245Z,19.88
2022-09-12T07:14:34.019Z,19.92
2022-09-12T07:15:36.607Z,19.93
2022-09-12T07:16:38.473Z,20.00
2022-09-12T07:17:40.213Z,20.02
2022-09-12T07:18:42.480Z,20.06
2022-09-12T07:19:44.194Z,20.09
2022-09-12T07:20:45.889Z,20.11
2022-09-12T07:21:47.583Z,20.16
2022-09-12T07:22:50.600Z,20.19
2022-09-12T07:23:55.113Z,20.24
2022-09-12T07:24:57.599Z,20.28
2022-09-12T07:26:01.483Z,20.33
2022-09-12T07:27:03.357Z,20.37
2022-09-12T07:28:05.050Z,20.40
2022-09-12T07:29:35.260Z,20.45
2022-09-12T07:30:28.541Z,20.51
2022-09-12T07:31:30.341Z,20.55
2022-09-12T07:32:32.120Z,20.61
2022-09-12T07:33:34.237Z,20.64
2022-09-12T07:34:36.831Z,20.69
2022-09-12T07:35:38.593Z,20.73
2022-09-12T07:36:40.324Z,20.76
2022-09-12T07:37:42.304Z,20.83
2022-09-12T07:38:46.778Z,20.89
2022-09-12T07:39:48.537Z,20.93
2022-09-12T07:40:50.303Z,20.98
2022-09-12T07:41:52.040Z,21.02
2022-09-12T07:42:53.758Z,21.08
2022-09-12T07:43:58.982Z,21.16
2022-09-12T07:45:00.717Z,21.16
2022-09-12T07:46:02.506Z,21.26
2022-09-12T07:47:04.811Z,21.31
2022-09-12T07:48:06.638Z,21.36
2022-09-12T07:49:08.682Z,21.41
2022-09-12T07:50:10.535Z,21.47
2022-09-12T07:51:12.270Z,21.53
2022-09-12T07:52:14.006Z,21.58
2022-09-12T07:53:15.870Z,21.63
2022-09-12T07:54:17.835Z,21.69
2022-09-12T07:55:19.830Z,21.72
2022-09-12T07:56:26.085Z,21.78
2022-09-12T07:57:29.216Z,21.83
2022-09-12T07:58:33.345Z,21.88
2022-09-12T07:59:52.097Z,21.92
2022-09-12T08:00:54.912Z,21.99
2022-09-12T08:01:56.625Z,22.04
2022-09-12T08:02:58.412Z,22.07
2022-09-12T08:04:00.866Z,22.11
2022-09-12T08:05:02.732Z,22.16
2022-09-12T08:06:16.768Z,22.22
2022-09-12T08:07:19.127Z,22.25
2022-09-12T08:08:21.461Z,22.30
2022-09-12T08:09:23.168Z,22.33
2022-09-12T08:10:24.966Z,22.38
2022-09-12T08:11:29.283Z,22.40
2022-09-12T08:12:32.197Z,22.45
2022-09-12T08:13:37.052Z,22.50
2022-09-12T08:14:38.786Z,22.53
2022-09-12T08:15:40.554Z,22.57
2022-09-12T08:16:42.565Z,22.60
2022-09-12T08:17:44.652Z,22.63
2022-09-12T08:18:46.865Z,22.67
2022-09-12T08:19:48.609Z,22.71
2022-09-12T08:20:57.993Z,22.76
2022-09-12T08:21:59.719Z,22.79
2022-09-12T08:23:01.467Z,22.82
2022-09-12T08:24:05.878Z,22.85
2022-09-12T08:25:08.654Z,22.91
2022-09-12T08:26:12.352Z,22.95
2022-09-12T08:27:14.735Z,22.99
2022-09-12T08:28:16.525Z,22.90
2022-09-12T08:29:18.273Z,23.01
2022-09-12T08:30:20.061Z,23.06
2022-09-12T08:31:25.496Z,23.13
2022-09-12T08:32:27.231Z,23.17
2022-09-12T08:33:33.256Z,23.21
2022-09-12T08:34:35.113Z,23.27
2022-09-12T08:35:36.824Z,23.31
2022-09-12T08:36:38.717Z,23.35
2022-09-12T08:37:40.996Z,23.39
2022-09-12T08:38:46.223Z,23.44
2022-09-12T08:39:47.942Z,23.49
2022-09-12T08:41:03.606Z,23.58
2022-09-12T08:42:06.996Z,23.60
2022-09-12T08:43:31.792Z,23.68
2022-09-12T08:44:51.621Z,23.74
2022-09-12T08:46:10.716Z,23.80
2022-09-12T08:47:32.698Z,23.86
2022-09-12T08:48:35.606Z,23.85
2022-09-12T08:50:14.632Z,23.95
2022-09-12T08:51:20.469Z,23.97
2022-09-12T08:52:51.934Z,24.07
2022-09-12T08:53:57.021Z,24.06
2022-09-12T08:55:00.052Z,24.08
2022-09-12T08:56:05.739Z,24.13
2022-09-12T08:57:11.700Z,24.18
2022-09-12T08:58:24.045Z,24.25
2022-09-12T08:59:25.816Z,24.27
2022-09-12T09:00:51.904Z,24.35
2022-09-12T09:02:02.394Z,24.41
2022-09-12T09:03:53.645Z,24.54
2022-09-12T09:05:20.231Z,24.61
2022-09-12T09:06:24.518Z,24.60
2022-09-12T09:08:07.225Z,24.71
2022-09-12T09:09:42.939Z,24.83
2022-09-12T09:10:59.621Z,24.80
2022-09-12T09:12:43.989Z,24.92
2022-09-12T09:14:35.223Z,24.96
2022-09-12T09:16:05.802Z,25.06
2022-09-12T09:17:20.174Z,25.12
2022-09-12T09:18:32.162Z,25.13
2022-09-12T09:19:50.842Z,25.20
2022-09-12T09:21:08.219Z,25.28
2022-09-12T09:22:38.100Z,25.39
2022-09-12T09:23:45.857Z,25.37
2022-09-12T09:24:59.704Z,25.44
2022-09-12T09:26:33.346Z,25.52
2022-09-12T09:27:50.947Z,25.60
2022-09-12T09:28:55.043Z,25.62
2022-09-12T09:29:57.295Z,25.66
2022-09-12T09:30:59.529Z,25.70
2022-09-12T09:32:14.237Z,25.78
2022-09-12T09:33:27.687Z,25.85
2022-09-12T09:34:34.444Z,25.89
2022-09-12T09:35:48.755Z,25.95
2022-09-12T09:37:08.627Z,26.06
2022-09-12T09:38:22.250Z,26.12
2022-09-12T09:39:59.514Z,26.22
2022-09-12T09:41:04.025Z,26.23
2022-09-12T09:43:02.145Z,26.37
2022-09-12T09:44:04.863Z,26.38
2022-09-12T09:45:20.653Z,26.45
2022-09-12T09:46:22.451Z,26.47
2022-09-12T09:47:24.309Z,26.48
2022-09-12T09:48:35.850Z,26.55
2022-09-12T09:49:38.573Z,26.59
2022-09-12T09:50:40.572Z,26.63
2022-09-12T09:51:43.215Z,26.67
2022-09-12T09:52:47.242Z,26.73
2022-09-12T09:53:56.183Z,26.78
2022-09-12T09:55:01.673Z,26.82
2022-09-12T09:56:23.362Z,26.91
2022-09-12T09:57:37.129Z,26.97
2022-09-12T09:58:40.278Z,27.00
2022-09-12T09:59:42.031Z,27.03
2022-09-12T10:00:43.846Z,27.07
2022-09-12T10:02:01.992Z,27.15
2022-09-12T10:03:11.348Z,27.21
2022-09-12T10:04:29.402Z,27.29
2022-09-12T10:05:46.923Z,27.35
2022-09-12T10:06:56.176Z,27.38
2022-09-12T10:07:58.466Z,27.43
2022-09-12T10:09:23.032Z,27.53
2022-09-12T10:10:25.434Z,27.53
2022-09-12T10:11:28.513Z,27.56
2022-09-12T10:12:30.216Z,27.59
2022-09-12T10:13:43.289Z,27.65
2022-09-12T10:15:03.865Z,27.73
2022-09-12T10:16:28.972Z,27.81
2022-09-12T10:17:42.407Z,27.83
2022-09-12T10:18:44.387Z,27.82
2022-09-12T10:19:52.670Z,27.83
2022-09-12T10:21:50.518Z,28.02
2022-09-12T10:22:52.313Z,27.99
2022-09-12T10:24:43.480Z,28.14
2022-09-12T10:25:54.011Z,28.10
2022-09-12T10:27:11.832Z,28.16
2022-09-12T10:28:32.927Z,28.18
2022-09-12T10:29:48.451Z,28.22
2022-09-12T10:30:56.411Z,28.26
2022-09-12T10:32:03.208Z,28.28
2022-09-12T10:33:12.751Z,28.33
2022-09-12T10:34:36.210Z,28.42
2022-09-12T10:35:49.322Z,28.44
2022-09-12T10:36:58.773Z,28.45
2022-09-12T10:38:06.156Z,28.50
2022-09-12T10:39:19.251Z,28.55
2022-09-12T10:40:27.428Z,28.56
2022-09-12T10:41:41.312Z,28.64
2022-09-12T10:42:52.372Z,28.66
2022-09-12T10:44:15.944Z,28.71
2022-09-12T10:45:22.652Z,28.71
2022-09-12T10:46:31.117Z,28.72
2022-09-12T10:47:32.931Z,28.74
2022-09-12T10:48:35.568Z,28.77
2022-09-12T10:49:40.185Z,28.78
2022-09-12T10:50:43.172Z,28.81
2022-09-12T10:51:44.895Z,28.86
2022-09-12T10:52:46.978Z,28.90
2022-09-12T10:53:48.912Z,28.91
2022-09-12T10:54:54.474Z,28.98
2022-09-12T10:56:16.601Z,29.08
2022-09-12T10:57:51.761Z,29.14
2022-09-12T10:59:36.457Z,29.20
2022-09-12T11:00:52.388Z,29.21
2022-09-12T11:02:23.296Z,29.24
2022-09-12T11:04:16.099Z,29.33
2022-09-12T11:05:46.698Z,29.37
2022-09-12T11:07:23.501Z,29.37
2022-09-12T11:08:44.304Z,29.33
2022-09-12T11:10:01.186Z,29.31
2022-09-12T11:11:26.778Z,29.35
2022-09-12T11:13:03.746Z,29.41
2022-09-12T11:14:21.608Z,29.43
2022-09-12T11:15:43.451Z,29.43
2022-09-12T11:17:00.880Z,29.45
2022-09-12T11:18:44.921Z,29.50
2022-09-12T11:20:31.225Z,29.58
2022-09-12T11:22:13.129Z,29.60
2022-09-12T11:23:47.831Z,29.59
2022-09-12T11:25:12.269Z,29.57
2022-09-12T11:26:22.822Z,29.56
2022-09-12T11:27:57.788Z,29.57
2022-09-12T11:29:20.543Z,29.60
2022-09-12T11:30:22.330Z,29.55
2022-09-12T11:31:50.366Z,29.58
2022-09-12T11:33:43.440Z,29.62
2022-09-12T11:35:17.465Z,29.59
2022-09-12T11:36:28.584Z,29.56
2022-09-12T11:38:05.492Z,29.56
2022-09-12T11:39:14.956Z,29.53
2022-09-12T11:40:20.388Z,29.50
2022-09-12T11:41:36.690Z,29.54
2022-09-12T11:42:40.790Z,29.52
2022-09-12T11:43:55.320Z,29.56
2022-09-12T11:45:22.062Z,29.63
2022-09-12T11:46:24.003Z,29.59
2022-09-12T11:47:29.619Z,29.60
2022-09-12T11:49:09.055Z,29.73
2022-09-12T11:50:30.892Z,29.73
2022-09-12T11:52:18.634Z,29.79
2022-09-12T11:53:34.619Z,29.78
2022-09-12T11:55:17.079Z,29.80
2022-09-12T11:56:19.027Z,29.73
2022-09-12T11:57:49.182Z,29.83
2022-09-12T11:59:15.809Z,29.85
2022-09-12T12:00:39.646Z,29.89
2022-09-12T12:01:48.497Z,29.87
2022-09-12T12:02:59.153Z,29.91
2022-09-12T12:04:11.569Z,29.92
2022-09-12T12:05:35.067Z,29.97
2022-09-12T12:07:10.481Z,30.06
2022-09-12T12:08:12.746Z,30.02
2022-09-12T12:09:14.819Z,30.02
2022-09-12T12:10:53.865Z,30.15
2022-09-12T12:12:00.900Z,30.12
2022-09-12T12:13:31.750Z,30.20
2022-09-12T12:14:44.584Z,30.22
2022-09-12T12:15:53.008Z,30.22
2022-09-12T12:16:54.973Z,30.23
2022-09-12T12:18:14.072Z,30.27
2022-09-12T12:19:15.689Z,30.28
2022-09-12T12:20:18.459Z,30.25
2022-09-12T12:21:29.327Z,30.28
2022-09-12T12:22:31.375Z,30.29
2022-09-12T12:23:35.368Z,30.30
2022-09-12T12:25:21.335Z,30.46
2022-09-12T12:26:58.730Z,30.53
2022-09-12T12:28:01.853Z,30.47
2022-09-12T12:29:03.930Z,30.46
2022-09-12T12:30:31.225Z,30.53
2022-09-12T12:32:02.019Z,30.57
2022-09-12T12:33:13.034Z,30.56
2022-09-12T12:34:43.498Z,30.65
2022-09-12T12:36:07.792Z,30.66
2022-09-12T12:37:29.583Z,30.69
2022-09-12T12:38:49.509Z,30.72
2022-09-12T12:40:04.892Z,30.70
2022-09-12T12:41:18.569Z,30.74
2022-09-12T12:42:35.447Z,30.77
2022-09-12T12:43:37.184Z,30.76
2022-09-12T12:44:50.267Z,30.79
2022-09-12T12:46:03.200Z,30.83
2022-09-12T12:47:28.129Z,30.90
2022-09-12T12:48:35.394Z,30.88
2022-09-12T12:49:37.393Z,30.90
2022-09-12T12:50:39.331Z,30.91
2022-09-12T12:52:01.509Z,30.99
2022-09-12T12:53:27.770Z,31.04
2022-09-12T12:54:50.767Z,31.06
2022-09-12T12:55:56.000Z,31.05
2022-09-12T12:57:17.446Z,31.05
2022-09-12T12:58:41.101Z,31.12
2022-09-12T13:00:28.005Z,31.16
2022-09-12T13:01:31.249Z,31.10
2022-09-12T13:02:41.046Z,31.09
2022-09-12T13:04:14.241Z,31.14
2022-09-12T13:05:26.688Z,31.12
2022-09-12T13:06:37.215Z,31.09
2022-09-12T13:07:40.407Z,31.07
2022-09-12T13:09:00.044Z,31.08
2022-09-12T13:10:05.100Z,31.02
2022-09-12T13:11:16.211Z,31.04
2022-09-12T13:12:32.371Z,31.09
2022-09-12T13:13:50.130Z,31.11
2022-09-12T13:15:01.556Z,31.14
2022-09-12T13:16:04.022Z,31.14
2022-09-12T13:17:13.512Z,31.14
2022-09-12T13:18:33.822Z,31.21
2022-09-12T13:19:38.086Z,31.19
2022-09-12T13:21:11.929Z,31.24
2022-09-12T13:22:14.385Z,31.25
2022-09-12T13:23:43.383Z,31.40
2022-09-12T13:24:52.503Z,31.42
2022-09-12T13:26:00.550Z,31.52
2022-09-12T13:27:02.960Z,31.63
2022-09-12T13:28:11.260Z,31.76
2022-09-12T13:29:25.687Z,31.90
2022-09-12T13:30:31.736Z,32.01
2022-09-12T13:31:33.630Z,32.11
2022-09-12T13:32:36.083Z,32.19
2022-09-12T13:33:47.005Z,32.28
2022-09-12T13:35:35.684Z,32.45
2022-09-12T13:37:07.720Z,32.47
2022-09-12T13:38:48.452Z,32.51
2022-09-12T13:39:50.358Z,32.44
2022-09-12T13:41:17.044Z,32.42
2022-09-12T13:42:48.493Z,32.41
2022-09-12T13:43:50.904Z,32.32
2022-09-12T13:45:33.909Z,32.36
2022-09-12T13:46:35.930Z,32.25
2022-09-12T13:47:45.709Z,32.22
2022-09-12T13:48:48.107Z,32.19
2022-09-12T13:49:50.501Z,32.15
2022-09-12T13:51:02.074Z,32.16
2022-09-12T13:52:26.103Z,32.17
2022-09-12T13:53:46.164Z,32.17
2022-09-12T13:54:54.773Z,32.12
2022-09-12T13:56:01.204Z,32.08
2022-09-12T13:57:03.321Z,32.06
2022-09-12T13:58:31.877Z,32.11
2022-09-12T13:59:42.618Z,32.06
2022-09-12T14:00:44.978Z,32.04
2022-09-12T14:01:48.487Z,32.00
2022-09-12T14:03:10.544Z,32.00
2022-09-12T14:04:44.640Z,32.04
2022-09-12T14:05:56.958Z,32.01
2022-09-12T14:07:22.117Z,31.97
2022-09-12T14:08:24.945Z,31.93
2022-09-12T14:09:34.612Z,31.91
2022-09-12T14:10:41.513Z,31.89
2022-09-12T14:11:43.558Z,31.88
2022-09-12T14:12:50.651Z,31.86
2022-09-12T14:13:53.779Z,31.86
2022-09-12T14:14:56.133Z,31.87
2022-09-12T14:15:58.495Z,31.84
2022-09-12T14:17:00.651Z,31.84
2022-09-12T14:18:05.468Z,31.85
2022-09-12T14:19:12.223Z,31.86
2022-09-12T14:20:18.481Z,31.85
2022-09-12T14:21:30.316Z,31.87
2022-09-12T14:22:34.628Z,31.86
2022-09-12T14:23:48.013Z,31.87
2022-09-12T14:24:51.617Z,31.86
2022-09-12T14:25:56.203Z,31.85
2022-09-12T14:26:58.752Z,31.86
2022-09-12T14:28:01.301Z,31.84
2022-09-12T14:29:07.115Z,31.86
2022-09-12T14:30:23.736Z,31.88
2022-09-12T14:31:31.893Z,31.87
2022-09-12T14:32:33.835Z,31.84
2022-09-12T14:33:57.004Z,31.88
2022-09-12T14:35:25.131Z,31.90
2022-09-12T14:36:34.007Z,31.86
2022-09-12T14:37:35.778Z,31.83
2022-09-12T14:38:45.314Z,31.84
2022-09-12T14:39:47.214Z,31.84
2022-09-12T14:41:20.662Z,31.89
2022-09-12T14:42:29.850Z,31.87
2022-09-12T14:43:46.185Z,31.89
2022-09-12T14:44:58.292Z,31.88
2022-09-12T14:46:26.189Z,31.90
2022-09-12T14:47:40.688Z,31.87
2022-09-12T14:49:07.933Z,31.88
2022-09-12T14:50:26.674Z,31.87
2022-09-12T14:51:37.287Z,31.84
2022-09-12T14:52:40.035Z,31.81
2022-09-12T14:53:49.141Z,31.81
2022-09-12T14:55:23.836Z,31.84
2022-09-12T14:57:04.181Z,31.83
2022-09-12T14:58:22.654Z,31.78
2022-09-12T14:59:36.992Z,31.73
2022-09-12T15:00:55.111Z,31.71
2022-09-12T15:02:25.837Z,31.71
2022-09-12T15:03:38.150Z,31.65
2022-09-12T15:04:47.243Z,31.59
2022-09-12T15:05:50.402Z,31.55
2022-09-12T15:06:52.437Z,31.51
2022-09-12T15:08:01.304Z,31.51
2022-09-12T15:09:12.330Z,31.46
2022-09-12T15:10:29.080Z,31.46
2022-09-12T15:11:30.789Z,31.42
2022-09-12T15:12:32.788Z,31.39
2022-09-12T15:13:41.411Z,31.35